sensor_id;sensor_type;location;lat;lon;timestamp;pressure;altitude;pressure_sealevel;temperature;humidity
51849;BME280;38952;51.090;-1.832;2023-02-11T00:02:24;102369.94;;;8.51;94.82
51849;BME280;38952;51.090;-1.832;2023-02-11T00:04:57;102385.47;;;8.50;93.94
51849;BME280;38952;51.090;-1.832;2023-02-11T00:07:30;102373.31;;;8.60;93.51
51849;BME280;38952;51.090;-1.832;2023-02-11T00:09:59;102351.06;;;8.49;93.37
51849;BME280;38952;51.090;-1.832;2023-02-11T00:12:27;102359.47;;;8.54;92.88
51849;BME280;38952;51.090;-1.832;2023-02-11T00:14:52;102371.25;;;8.68;93.05
51849;BME280;38952;51.090;-1.832;2023-02-11T00:17:20;102359.91;;;8.65;92.66
51849;BME280;38952;51.090;-1.832;2023-02-11T00:20:00;102369.75;;;8.66;92.21
51849;BME280;38952;51.090;-1.832;2023-02-11T00:22:31;102346.47;;;8.56;92.09
51849;BME280;38952;51.090;-1.832;2023-02-11T00:24:57;102375.03;;;8.74;91.82
51849;BME280;38952;51.090;-1.832;2023-02-11T00:27:22;102363.47;;;8.65;91.50
51849;BME280;38952;51.090;-1.832;2023-02-11T00:29:48;102345.22;;;8.59;92.05
51849;BME280;38952;51.090;-1.832;2023-02-11T00:32:13;102386.19;;;8.79;90.92
51849;BME280;38952;51.090;-1.832;2023-02-11T00:34:39;102368.53;;;8.75;90.81
51849;BME280;38952;51.090;-1.832;2023-02-11T00:37:05;102349.44;;;8.62;91.01
51849;BME280;38952;51.090;-1.832;2023-02-11T00:39:31;102341.00;;;8.56;90.68
51849;BME280;38952;51.090;-1.832;2023-02-11T00:41:57;102351.91;;;8.56;91.38
51849;BME280;38952;51.090;-1.832;2023-02-11T00:44:23;102344.16;;;8.53;91.28
51849;BME280;38952;51.090;-1.832;2023-02-11T00:46:48;102367.03;;;8.66;91.33
51849;BME280;38952;51.090;-1.832;2023-02-11T00:49:17;102359.91;;;8.65;91.36
51849;BME280;38952;51.090;-1.832;2023-02-11T00:51:54;102353.19;;;8.61;91.08
51849;BME280;38952;51.090;-1.832;2023-02-11T00:54:27;102375.88;;;8.74;90.41
51849;BME280;38952;51.090;-1.832;2023-02-11T00:57:02;102364.72;;;8.63;91.11
51849;BME280;38952;51.090;-1.832;2023-02-11T00:59:27;102377.16;;;8.72;91.05
51849;BME280;38952;51.090;-1.832;2023-02-11T01:01:53;102351.91;;;8.56;90.47
51849;BME280;38952;51.090;-1.832;2023-02-11T01:04:21;102362.41;;;8.60;89.84
51849;BME280;38952;51.090;-1.832;2023-02-11T01:06:46;102377.16;;;8.72;89.95
51849;BME280;38952;51.090;-1.832;2023-02-11T01:09:15;102374.59;;;8.64;89.29
51849;BME280;38952;51.090;-1.832;2023-02-11T01:11:43;102368.69;;;8.53;89.80
51849;BME280;38952;51.090;-1.832;2023-02-11T01:14:09;102362.63;;;8.51;89.62
51849;BME280;38952;51.090;-1.832;2023-02-11T01:16:34;102375.84;;;8.54;89.83
51849;BME280;38952;51.090;-1.832;2023-02-11T01:19:03;102392.44;;;8.66;89.49
51849;BME280;38952;51.090;-1.832;2023-02-11T01:21:28;102365.97;;;8.53;89.50
51849;BME280;38952;51.090;-1.832;2023-02-11T01:24:01;102359.22;;;8.49;89.77
51849;BME280;38952;51.090;-1.832;2023-02-11T01:26:29;102375.63;;;8.63;89.20
51849;BME280;38952;51.090;-1.832;2023-02-11T01:29:02;102349.56;;;8.47;89.18
51849;BME280;38952;51.090;-1.832;2023-02-11T01:31:29;102360.91;;;8.50;89.36
51849;BME280;38952;51.090;-1.832;2023-02-11T01:33:57;102384.66;;;8.70;89.18
51849;BME280;38952;51.090;-1.832;2023-02-11T01:36:25;102348.56;;;8.54;88.96
51849;BME280;38952;51.090;-1.832;2023-02-11T01:38:50;102366.66;;;8.69;88.88
51849;BME280;38952;51.090;-1.832;2023-02-11T01:41:34;102355.91;;;8.61;88.61
51849;BME280;38952;51.090;-1.832;2023-02-11T01:44:31;102375.03;;;8.74;88.63
51849;BME280;38952;51.090;-1.832;2023-02-11T01:46:58;102369.59;;;8.74;88.75
51849;BME280;38952;51.090;-1.832;2023-02-11T01:52:26;102366.44;;;8.70;88.25
51849;BME280;38952;51.090;-1.832;2023-02-11T01:54:55;102341.19;;;8.48;87.71
51849;BME280;38952;51.090;-1.832;2023-02-11T01:57:42;102363.91;;;8.69;87.87
51849;BME280;38952;51.090;-1.832;2023-02-11T02:00:38;102334.69;;;8.49;87.69
51849;BME280;38952;51.090;-1.832;2023-02-11T02:03:30;102303.19;;;8.40;87.56
51849;BME280;38952;51.090;-1.832;2023-02-11T02:06:25;102367.06;;;8.72;86.89
51849;BME280;38952;51.090;-1.832;2023-02-11T02:09:26;102370.41;;;8.74;86.88
51849;BME280;38952;51.090;-1.832;2023-02-11T02:12:00;102367.50;;;8.76;86.46
51849;BME280;38952;51.090;-1.832;2023-02-11T02:14:46;102334.72;;;8.63;86.54
51849;BME280;38952;51.090;-1.832;2023-02-11T02:17:28;102361.63;;;8.79;86.11
51849;BME280;38952;51.090;-1.832;2023-02-11T02:20:22;102319.19;;;8.56;86.29
51849;BME280;38952;51.090;-1.832;2023-02-11T02:26:21;102329.88;;;8.58;86.24
51849;BME280;38952;51.090;-1.832;2023-02-11T02:32:37;102337.69;;;8.68;86.09
51849;BME280;38952;51.090;-1.832;2023-02-11T02:35:26;102347.75;;;8.67;85.80
51849;BME280;38952;51.090;-1.832;2023-02-11T02:38:11;102331.78;;;8.58;86.15
51849;BME280;38952;51.090;-1.832;2023-02-11T02:40:53;102344.81;;;8.69;86.32
51849;BME280;38952;51.090;-1.832;2023-02-11T02:43:25;102344.81;;;8.69;86.27
51849;BME280;38952;51.090;-1.832;2023-02-11T02:46:11;102316.66;;;8.55;86.49
51849;BME280;38952;51.090;-1.832;2023-02-11T02:48:42;102314.78;;;8.55;86.01
51849;BME280;38952;51.090;-1.832;2023-02-11T03:12:49;102285.00;;;8.61;86.44
51849;BME280;38952;51.090;-1.832;2023-02-11T03:15:23;102270.28;;;8.48;86.44
51849;BME280;38952;51.090;-1.832;2023-02-11T03:17:59;102248.84;;;8.25;86.16
51849;BME280;38952;51.090;-1.832;2023-02-11T03:20:26;102279.06;;;8.44;86.67
51849;BME280;38952;51.090;-1.832;2023-02-11T03:23:20;102306.22;;;8.59;86.43
51849;BME280;38952;51.090;-1.832;2023-02-11T03:25:52;102279.75;;;8.46;86.57
51849;BME280;38952;51.090;-1.832;2023-02-11T03:28:28;102295.31;;;8.59;86.36
51849;BME280;38952;51.090;-1.832;2023-02-11T03:31:46;102297.38;;;8.56;86.73
51849;BME280;38952;51.090;-1.832;2023-02-11T03:34:36;102300.75;;;8.59;86.41
51849;BME280;38952;51.090;-1.832;2023-02-11T03:40:18;102279.75;;;8.52;86.31
51849;BME280;38952;51.090;-1.832;2023-02-11T03:46:03;102289.38;;;8.48;85.82
51849;BME280;38952;51.090;-1.832;2023-02-11T03:48:47;102315.44;;;8.58;85.99
51849;BME280;38952;51.090;-1.832;2023-02-11T03:51:35;102293.38;;;8.52;86.05
51849;BME280;38952;51.090;-1.832;2023-02-11T03:54:05;102286.03;;;8.46;85.70
51849;BME280;38952;51.090;-1.832;2023-02-11T03:57:01;102299.25;;;8.63;85.14
51849;BME280;38952;51.090;-1.832;2023-02-11T03:59:27;102284.56;;;8.50;85.15
51849;BME280;38952;51.090;-1.832;2023-02-11T04:01:58;102308.09;;;8.65;84.71
51849;BME280;38952;51.090;-1.832;2023-02-11T04:04:24;102302.84;;;8.63;84.90
51849;BME280;38952;51.090;-1.832;2023-02-11T04:06:49;102281.84;;;8.50;84.69
51849;BME280;38952;51.090;-1.832;2023-02-11T04:09:18;102300.53;;;8.60;85.10
51849;BME280;38952;51.090;-1.832;2023-02-11T04:11:43;102284.56;;;8.57;84.82
51849;BME280;38952;51.090;-1.832;2023-02-11T04:14:09;102290.88;;;8.58;84.84
51849;BME280;38952;51.090;-1.832;2023-02-11T04:16:43;102280.41;;;8.54;84.37
51849;BME280;38952;51.090;-1.832;2023-02-11T04:19:18;102310.81;;;8.71;84.90
51849;BME280;38952;51.090;-1.832;2023-02-11T04:21:46;102292.75;;;8.57;84.59
51849;BME280;38952;51.090;-1.832;2023-02-11T04:24:12;102289.00;;;8.51;84.76
51849;BME280;38952;51.090;-1.832;2023-02-11T04:26:40;102309.75;;;8.66;83.79
51849;BME280;38952;51.090;-1.832;2023-02-11T04:29:07;102294.88;;;8.62;84.67
51849;BME280;38952;51.090;-1.832;2023-02-11T04:31:33;102284.13;;;8.47;84.53
51849;BME280;38952;51.090;-1.832;2023-02-11T04:33:58;102319.63;;;8.67;84.31
51849;BME280;38952;51.090;-1.832;2023-02-11T04:36:24;102295.69;;;8.55;83.96
51849;BME280;38952;51.090;-1.832;2023-02-11T04:38:49;102307.88;;;8.60;83.52
51849;BME280;38952;51.090;-1.832;2023-02-11T04:41:15;102292.34;;;8.53;83.37
51849;BME280;38952;51.090;-1.832;2023-02-11T04:43:40;102308.06;;;8.58;83.41
51849;BME280;38952;51.090;-1.832;2023-02-11T04:46:06;102330.53;;;8.67;83.25
51849;BME280;38952;51.090;-1.832;2023-02-11T04:48:32;102341.47;;;8.73;84.00
51849;BME280;38952;51.090;-1.832;2023-02-11T04:51:00;102342.31;;;8.74;83.32
51849;BME280;38952;51.090;-1.832;2023-02-11T04:53:28;102337.25;;;8.71;83.32
51849;BME280;38952;51.090;-1.832;2023-02-11T04:55:53;102330.53;;;8.67;83.34
51849;BME280;38952;51.090;-1.832;2023-02-11T04:58:19;102321.91;;;8.56;83.37
51849;BME280;38952;51.090;-1.832;2023-02-11T05:00:54;102337.69;;;8.68;84.01
51849;BME280;38952;51.090;-1.832;2023-02-11T05:03:27;102340.19;;;8.63;83.98
51849;BME280;38952;51.090;-1.832;2023-02-11T05:05:58;102328.81;;;8.52;84.38
51849;BME280;38952;51.090;-1.832;2023-02-11T05:08:23;102343.72;;;8.56;84.63
51849;BME280;38952;51.090;-1.832;2023-02-11T05:10:51;102332.16;;;8.48;84.87
51849;BME280;38952;51.090;-1.832;2023-02-11T05:13:20;102332.38;;;8.46;85.05
51849;BME280;38952;51.090;-1.832;2023-02-11T05:15:45;102339.53;;;8.47;85.47
51849;BME280;38952;51.090;-1.832;2023-02-11T05:18:13;102327.94;;;8.38;85.98
51849;BME280;38952;51.090;-1.832;2023-02-11T05:20:42;102343.91;;;8.48;86.27
51849;BME280;38952;51.090;-1.832;2023-02-11T05:23:31;102316.53;;;8.21;86.98
51849;BME280;38952;51.090;-1.832;2023-02-11T05:25:58;102344.06;;;8.40;87.25
51849;BME280;38952;51.090;-1.832;2023-02-11T05:28:23;102337.97;;;8.38;86.84
51849;BME280;38952;51.090;-1.832;2023-02-11T05:30:49;102339.66;;;8.39;86.89
51849;BME280;38952;51.090;-1.832;2023-02-11T05:33:14;102327.28;;;8.30;87.46
51849;BME280;38952;51.090;-1.832;2023-02-11T05:35:47;102331.47;;;8.32;87.12
51849;BME280;38952;51.090;-1.832;2023-02-11T05:38:13;102322.63;;;8.24;87.07
51849;BME280;38952;51.090;-1.832;2023-02-11T05:41:11;102334.81;;;8.34;87.01
51849;BME280;38952;51.090;-1.832;2023-02-11T05:43:44;102325.78;;;8.27;87.17
51849;BME280;38952;51.090;-1.832;2023-02-11T05:46:13;102333.34;;;8.32;87.68
51849;BME280;38952;51.090;-1.832;2023-02-11T05:48:54;102324.72;;;8.21;88.20
51849;BME280;38952;51.090;-1.832;2023-02-11T05:51:25;102344.88;;;8.27;88.16
51849;BME280;38952;51.090;-1.832;2023-02-11T05:53:50;102342.34;;;8.26;88.22
51849;BME280;38952;51.090;-1.832;2023-02-11T05:56:23;102339.00;;;8.24;88.52
51849;BME280;38952;51.090;-1.832;2023-02-11T05:58:48;102313.50;;;8.03;88.83
51849;BME280;38952;51.090;-1.832;2023-02-11T06:01:14;102338.94;;;8.17;88.99
51849;BME280;38952;51.090;-1.832;2023-02-11T06:03:39;102317.31;;;8.09;88.99
51849;BME280;38952;51.090;-1.832;2023-02-11T06:06:11;102319.81;;;8.03;89.10
51849;BME280;38952;51.090;-1.832;2023-02-11T06:08:42;102335.41;;;8.16;89.02
51849;BME280;38952;51.090;-1.832;2023-02-11T06:11:16;102337.47;;;8.14;89.36
51849;BME280;38952;51.090;-1.832;2023-02-11T06:13:49;102337.72;;;8.19;89.58
51849;BME280;38952;51.090;-1.832;2023-02-11T06:16:15;102344.44;;;8.24;89.54
51849;BME280;38952;51.090;-1.832;2023-02-11T06:22:17;102328.59;;;7.99;90.65
51849;BME280;38952;51.090;-1.832;2023-02-11T06:24:51;102327.72;;;7.92;91.01
51849;BME280;38952;51.090;-1.832;2023-02-11T06:27:24;102338.22;;;7.95;91.32
51849;BME280;38952;51.090;-1.832;2023-02-11T06:29:50;102347.50;;;8.07;91.06
51849;BME280;38952;51.090;-1.832;2023-02-11T06:32:25;102341.41;;;8.05;91.71
51849;BME280;38952;51.090;-1.832;2023-02-11T06:35:19;102331.13;;;8.00;91.40
51849;BME280;38952;51.090;-1.832;2023-02-11T06:42:04;102351.09;;;8.14;91.28
51849;BME280;38952;51.090;-1.832;2023-02-11T06:44:58;102331.13;;;8.00;91.13
51849;BME280;38952;51.090;-1.832;2023-02-11T06:47:40;102330.28;;;8.00;91.50
51849;BME280;38952;51.090;-1.832;2023-02-11T06:53:20;102337.97;;;7.90;91.12
51849;BME280;38952;51.090;-1.832;2023-02-11T06:56:22;102380.84;;;8.09;91.67
51849;BME280;38952;51.090;-1.832;2023-02-11T06:58:59;102365.69;;;8.00;91.20
51849;BME280;38952;51.090;-1.832;2023-02-11T07:01:54;102338.59;;;7.85;91.74
51849;BME280;38952;51.090;-1.832;2023-02-11T07:08:26;102379.38;;;8.07;91.85
51849;BME280;38952;51.090;-1.832;2023-02-11T07:14:23;102360.91;;;8.02;91.50
51849;BME280;38952;51.090;-1.832;2023-02-11T07:20:50;102391.59;;;8.24;91.42
51849;BME280;38952;51.090;-1.832;2023-02-11T07:26:56;102388.63;;;8.19;91.33
51849;BME280;38952;51.090;-1.832;2023-02-11T07:29:53;102388.63;;;8.12;91.09
51849;BME280;38952;51.090;-1.832;2023-02-11T07:32:47;102373.44;;;7.96;91.68
51849;BME280;38952;51.090;-1.832;2023-02-11T07:35:43;102342.72;;;7.74;91.57
51849;BME280;38952;51.090;-1.832;2023-02-11T07:41:36;102386.44;;;8.01;91.14
51849;BME280;38952;51.090;-1.832;2023-02-11T07:44:15;102365.41;;;7.88;91.31
51849;BME280;38952;51.090;-1.832;2023-02-11T07:46:47;102368.81;;;7.97;91.14
51849;BME280;38952;51.090;-1.832;2023-02-11T07:49:22;102397.47;;;8.21;91.19
51849;BME280;38952;51.090;-1.832;2023-02-11T07:55:24;102391.63;;;8.31;90.62
51849;BME280;38952;51.090;-1.832;2023-02-11T08:01:58;102404.25;;;8.38;90.12
51849;BME280;38952;51.090;-1.832;2023-02-11T08:04:40;102374.81;;;8.20;90.01
51849;BME280;38952;51.090;-1.832;2023-02-11T08:07:09;102407.69;;;8.47;89.92
51849;BME280;38952;51.090;-1.832;2023-02-11T08:09:36;102420.75;;;8.59;89.60
51849;BME280;38952;51.090;-1.832;2023-02-11T08:12:02;102406.25;;;8.51;89.23
51849;BME280;38952;51.090;-1.832;2023-02-11T08:14:28;102420.75;;;8.59;89.70
51849;BME280;38952;51.090;-1.832;2023-02-11T08:16:56;102405.16;;;8.52;89.43
51849;BME280;38952;51.090;-1.832;2023-02-11T08:19:21;102412.97;;;8.62;89.06
51849;BME280;38952;51.090;-1.832;2023-02-11T08:21:47;102435.06;;;8.74;89.59
51849;BME280;38952;51.090;-1.832;2023-02-11T08:24:35;102427.91;;;8.73;88.55
51849;BME280;38952;51.090;-1.832;2023-02-11T08:27:00;102411.09;;;8.63;88.70
51849;BME280;38952;51.090;-1.832;2023-02-11T08:29:26;102428.56;;;8.75;89.14
51849;BME280;38952;51.090;-1.832;2023-02-11T08:31:51;102423.31;;;8.80;89.07
51849;BME280;38952;51.090;-1.832;2023-02-11T08:34:17;102430.88;;;8.78;88.67
51849;BME280;38952;51.090;-1.832;2023-02-11T08:36:44;102438.44;;;8.83;88.59
51849;BME280;38952;51.090;-1.832;2023-02-11T08:39:21;102425.84;;;8.82;88.74
51849;BME280;38952;51.090;-1.832;2023-02-11T08:42:02;102404.38;;;8.65;88.42
51849;BME280;38952;51.090;-1.832;2023-02-11T08:44:33;102432.16;;;8.82;88.75
51849;BME280;38952;51.090;-1.832;2023-02-11T08:47:04;102402.28;;;8.61;89.48
51849;BME280;38952;51.090;-1.832;2023-02-11T08:49:37;102443.03;;;8.76;89.40
51849;BME280;38952;51.090;-1.832;2023-02-11T08:52:33;102441.34;;;8.68;89.48
51849;BME280;38952;51.090;-1.832;2023-02-11T08:55:09;102439.22;;;8.70;90.22
51849;BME280;38952;51.090;-1.832;2023-02-11T08:58:13;102452.44;;;8.73;90.07
51849;BME280;38952;51.090;-1.832;2023-02-11T09:00:39;102443.41;;;8.66;90.29
51849;BME280;38952;51.090;-1.832;2023-02-11T09:03:16;102456.25;;;8.72;90.33
51849;BME280;38952;51.090;-1.832;2023-02-11T09:05:51;102458.56;;;8.75;90.55
51849;BME280;38952;51.090;-1.832;2023-02-11T09:11:50;102407.72;;;8.61;90.48
51849;BME280;38952;51.090;-1.832;2023-02-11T09:31:18;102404.41;;;8.72;90.83
51849;BME280;38952;51.090;-1.832;2023-02-11T09:33:46;102414.50;;;8.78;90.43
51849;BME280;38952;51.090;-1.832;2023-02-11T09:36:35;102429.25;;;8.97;90.53
51849;BME280;38952;51.090;-1.832;2023-02-11T09:39:27;102383.88;;;8.76;90.53
51849;BME280;38952;51.090;-1.832;2023-02-11T09:45:34;102431.41;;;9.35;89.62
51849;BME280;38952;51.090;-1.832;2023-02-11T09:48:37;102433.94;;;9.50;89.26
51849;BME280;38952;51.090;-1.832;2023-02-11T09:51:04;102428.88;;;9.60;87.99
51849;BME280;38952;51.090;-1.832;2023-02-11T09:53:41;102426.34;;;9.72;87.83
51849;BME280;38952;51.090;-1.832;2023-02-11T09:56:14;102391.06;;;9.57;87.10
51849;BME280;38952;51.090;-1.832;2023-02-11T09:59:01;102447.56;;;9.84;85.93
51849;BME280;38952;51.090;-1.832;2023-02-11T10:02:23;102451.56;;;9.81;86.67
51849;BME280;38952;51.090;-1.832;2023-02-11T10:06:32;102441.31;;;9.70;86.23
51849;BME280;38952;51.090;-1.832;2023-02-11T10:14:47;102457.03;;;9.81;86.45
51849;BME280;38952;51.090;-1.832;2023-02-11T10:23:01;102461.16;;;10.30;85.96
51849;BME280;38952;51.090;-1.832;2023-02-11T10:25:53;102465.28;;;10.67;85.54
51849;BME280;38952;51.090;-1.832;2023-02-11T10:28:58;102466.06;;;11.19;82.88
51849;BME280;38952;51.090;-1.832;2023-02-11T10:31:27;102457.09;;;12.13;81.03
51849;BME280;38952;51.090;-1.832;2023-02-11T10:34:01;102463.81;;;12.54;77.09
51849;BME280;38952;51.090;-1.832;2023-02-11T10:36:34;102452.47;;;12.32;75.24
51849;BME280;38952;51.090;-1.832;2023-02-11T10:39:17;102447.56;;;11.97;75.68
51849;BME280;38952;51.090;-1.832;2023-02-11T10:41:55;102481.75;;;11.94;76.15
51849;BME280;38952;51.090;-1.832;2023-02-11T10:44:38;102452.13;;;11.78;76.59
51849;BME280;38952;51.090;-1.832;2023-02-11T10:47:17;102475.44;;;11.87;76.41
51849;BME280;38952;51.090;-1.832;2023-02-11T10:49:47;102453.81;;;12.04;76.24
51849;BME280;38952;51.090;-1.832;2023-02-11T10:52:40;102443.25;;;12.08;74.91
51849;BME280;38952;51.090;-1.832;2023-02-11T10:55:23;102467.16;;;12.19;74.44
51849;BME280;38952;51.090;-1.832;2023-02-11T11:04:44;102429.09;;;12.11;74.03
51849;BME280;38952;51.090;-1.832;2023-02-11T11:07:30;102446.44;;;12.23;74.16
51849;BME280;38952;51.090;-1.832;2023-02-11T11:13:31;102463.19;;;11.96;74.24
51849;BME280;38952;51.090;-1.832;2023-02-11T11:21:57;102472.38;;;12.46;73.86
51849;BME280;38952;51.090;-1.832;2023-02-11T11:24:50;102436.38;;;12.54;72.77
51849;BME280;38952;51.090;-1.832;2023-02-11T11:30:20;102471.13;;;12.79;72.06
51849;BME280;38952;51.090;-1.832;2023-02-11T11:32:51;102434.19;;;12.93;71.12
51849;BME280;38952;51.090;-1.832;2023-02-11T11:35:31;102469.19;;;13.28;68.91
51849;BME280;38952;51.090;-1.832;2023-02-11T11:38:08;102456.72;;;13.56;69.09
51849;BME280;38952;51.090;-1.832;2023-02-11T11:40:42;102473.25;;;14.27;67.80
51849;BME280;38952;51.090;-1.832;2023-02-11T11:43:18;102463.16;;;14.56;66.14
51849;BME280;38952;51.090;-1.832;2023-02-11T11:45:58;102454.06;;;14.68;65.70
51849;BME280;38952;51.090;-1.832;2023-02-11T11:48:37;102460.41;;;14.56;64.49
51849;BME280;38952;51.090;-1.832;2023-02-11T11:51:07;102454.47;;;14.36;64.30
51849;BME280;38952;51.090;-1.832;2023-02-11T11:53:46;102456.03;;;14.08;64.34
51849;BME280;38952;51.090;-1.832;2023-02-11T11:56:24;102453.16;;;13.79;64.83
51849;BME280;38952;51.090;-1.832;2023-02-11T11:58:52;102437.88;;;13.29;65.33
51849;BME280;38952;51.090;-1.832;2023-02-11T12:37:23;102420.19;;;12.64;68.47
51849;BME280;38952;51.090;-1.832;2023-02-11T12:42:49;102415.19;;;12.61;68.30
51849;BME280;38952;51.090;-1.832;2023-02-11T12:54:05;102420.31;;;12.57;68.69
51849;BME280;38952;51.090;-1.832;2023-02-11T12:56:46;102415.47;;;12.71;68.30
51849;BME280;38952;51.090;-1.832;2023-02-11T12:59:37;102411.28;;;12.99;68.19
51849;BME280;38952;51.090;-1.832;2023-02-11T13:05:21;102395.53;;;13.06;66.34
51849;BME280;38952;51.090;-1.832;2023-02-11T13:07:50;102399.38;;;13.05;66.19
51849;BME280;38952;51.090;-1.832;2023-02-11T13:10:36;102419.66;;;13.35;66.57
51849;BME280;38952;51.090;-1.832;2023-02-11T13:13:13;102391.41;;;13.27;65.06
51849;BME280;38952;51.090;-1.832;2023-02-11T13:16:02;102404.00;;;13.35;65.20
51849;BME280;38952;51.090;-1.832;2023-02-11T13:19:01;102391.78;;;13.31;64.80
51849;BME280;38952;51.090;-1.832;2023-02-11T13:27:05;102402.44;;;12.67;64.69
51849;BME280;38952;51.090;-1.832;2023-02-11T13:29:41;102403.22;;;12.55;64.84
51849;BME280;38952;51.090;-1.832;2023-02-11T13:32:15;102395.28;;;12.66;65.49
51849;BME280;38952;51.090;-1.832;2023-02-11T13:37:20;102397.91;;;12.91;65.56
51849;BME280;38952;51.090;-1.832;2023-02-11T13:40:20;102400.56;;;13.09;65.54
51849;BME280;38952;51.090;-1.832;2023-02-11T13:42:59;102381.84;;;13.30;65.08
51849;BME280;38952;51.090;-1.832;2023-02-11T13:45:43;102389.44;;;13.70;64.35
51849;BME280;38952;51.090;-1.832;2023-02-11T13:48:24;102380.81;;;14.02;63.25
51849;BME280;38952;51.090;-1.832;2023-02-11T13:50:54;102380.41;;;14.34;62.90
51849;BME280;38952;51.090;-1.832;2023-02-11T13:53:26;102371.84;;;14.47;61.94
51849;BME280;38952;51.090;-1.832;2023-02-11T13:56:29;102383.97;;;14.75;60.82
51849;BME280;38952;51.090;-1.832;2023-02-11T13:58:58;102375.09;;;15.02;60.24
51849;BME280;38952;51.090;-1.832;2023-02-11T14:08:18;102387.50;;;14.88;58.33
51849;BME280;38952;51.090;-1.832;2023-02-11T14:15:14;102354.28;;;13.96;58.98
51849;BME280;38952;51.090;-1.832;2023-02-11T14:19:14;102382.72;;;13.90;59.42
51849;BME280;38952;51.090;-1.832;2023-02-11T14:24:38;102380.53;;;13.21;59.97
51849;BME280;38952;51.090;-1.832;2023-02-11T14:27:14;102368.59;;;13.27;60.67
51849;BME280;38952;51.090;-1.832;2023-02-11T14:40:31;102368.19;;;13.00;61.58
51849;BME280;38952;51.090;-1.832;2023-02-11T14:43:24;102379.00;;;12.83;61.96
51849;BME280;38952;51.090;-1.832;2023-02-11T14:45:53;102377.31;;;12.82;62.56
51849;BME280;38952;51.090;-1.832;2023-02-11T14:48:24;102352.22;;;12.66;62.81
51849;BME280;38952;51.090;-1.832;2023-02-11T14:51:14;102371.06;;;12.74;62.74
51849;BME280;38952;51.090;-1.832;2023-02-11T14:53:43;102363.47;;;12.77;62.97
51849;BME280;38952;51.090;-1.832;2023-02-11T14:56:32;102365.16;;;12.78;62.93
51849;BME280;38952;51.090;-1.832;2023-02-11T14:59:01;102367.53;;;12.55;63.06
51849;BME280;38952;51.090;-1.832;2023-02-11T15:01:31;102381.78;;;12.34;63.56
51849;BME280;38952;51.090;-1.832;2023-02-11T15:04:26;102366.47;;;12.08;63.91
51849;BME280;38952;51.090;-1.832;2023-02-11T15:07:05;102336.44;;;11.94;64.21
51849;BME280;38952;51.090;-1.832;2023-02-11T15:09:38;102377.34;;;12.14;64.58
51849;BME280;38952;51.090;-1.832;2023-02-11T15:15:47;102352.16;;;11.62;65.62
51849;BME280;38952;51.090;-1.832;2023-02-11T15:21:49;102336.53;;;11.18;67.92
51849;BME280;38952;51.090;-1.832;2023-02-11T15:25:07;102361.41;;;11.17;68.88
51849;BME280;38952;51.090;-1.832;2023-02-11T15:31:21;102378.44;;;10.87;71.00
51849;BME280;38952;51.090;-1.832;2023-02-11T15:34:21;102355.84;;;10.67;71.90
51849;BME280;38952;51.090;-1.832;2023-02-11T15:43:52;102371.22;;;10.68;72.27
51849;BME280;38952;51.090;-1.832;2023-02-11T15:49:56;102381.34;;;10.60;73.18
51849;BME280;38952;51.090;-1.832;2023-02-11T15:52:48;102381.59;;;10.52;73.22
51849;BME280;38952;51.090;-1.832;2023-02-11T15:55:38;102380.78;;;10.45;73.49
51849;BME280;38952;51.090;-1.832;2023-02-11T16:22:52;102340.75;;;10.57;73.77
51849;BME280;38952;51.090;-1.832;2023-02-11T16:28:23;102342.06;;;10.48;73.42
51849;BME280;38952;51.090;-1.832;2023-02-11T16:30:56;102356.72;;;10.60;73.99
51849;BME280;38952;51.090;-1.832;2023-02-11T16:33:42;102380.22;;;10.75;74.02
51849;BME280;38952;51.090;-1.832;2023-02-11T16:39:11;102348.16;;;10.50;74.07
51849;BME280;38952;51.090;-1.832;2023-02-11T16:41:46;102363.09;;;10.54;73.61
51849;BME280;38952;51.090;-1.832;2023-02-11T16:45:00;102387.22;;;10.64;74.00
51849;BME280;38952;51.090;-1.832;2023-02-11T16:50:59;102401.34;;;10.61;74.42
51849;BME280;38952;51.090;-1.832;2023-02-11T16:53:55;102396.31;;;10.58;74.59
51849;BME280;38952;51.090;-1.832;2023-02-11T16:56:58;102376.34;;;10.44;74.49
51849;BME280;38952;51.090;-1.832;2023-02-11T16:59:26;102392.38;;;10.47;74.43
51849;BME280;38952;51.090;-1.832;2023-02-11T17:01:59;102395.72;;;10.42;75.02
51849;BME280;38952;51.090;-1.832;2023-02-11T17:04:29;102382.50;;;10.26;74.81
51849;BME280;38952;51.090;-1.832;2023-02-11T17:06:58;102395.13;;;10.34;75.19
51849;BME280;38952;51.090;-1.832;2023-02-11T17:09:26;102410.69;;;10.40;74.77
51849;BME280;38952;51.090;-1.832;2023-02-11T17:11:51;102403.13;;;10.28;75.54
51849;BME280;38952;51.090;-1.832;2023-02-11T17:14:18;102416.59;;;10.37;75.13
51849;BME280;38952;51.090;-1.832;2023-02-11T17:16:45;102423.34;;;10.34;75.61
51849;BME280;38952;51.090;-1.832;2023-02-11T17:19:12;102406.09;;;10.20;75.39
51849;BME280;38952;51.090;-1.832;2023-02-11T17:21:44;102408.22;;;10.18;75.74
51849;BME280;38952;51.090;-1.832;2023-02-11T17:24:13;102422.91;;;10.24;76.25
51849;BME280;38952;51.090;-1.832;2023-02-11T17:26:40;102426.31;;;10.19;75.84
51849;BME280;38952;51.090;-1.832;2023-02-11T17:29:07;102430.06;;;10.18;75.98
51849;BME280;38952;51.090;-1.832;2023-02-11T17:31:35;102411.59;;;10.07;76.52
51849;BME280;38952;51.090;-1.832;2023-02-11T17:34:01;102420.41;;;10.09;76.36
51849;BME280;38952;51.090;-1.832;2023-02-11T17:36:29;102411.59;;;10.07;76.52
51849;BME280;38952;51.090;-1.832;2023-02-11T17:38:56;102435.56;;;10.11;76.80
51849;BME280;38952;51.090;-1.832;2023-02-11T17:41:23;102423.81;;;9.98;76.38
51849;BME280;38952;51.090;-1.832;2023-02-11T17:43:48;102443.56;;;10.06;76.61
51849;BME280;38952;51.090;-1.832;2023-02-11T17:46:14;102427.16;;;10.00;76.89
51849;BME280;38952;51.090;-1.832;2023-02-11T17:48:41;102429.72;;;9.94;76.61
51849;BME280;38952;51.090;-1.832;2023-02-11T17:51:23;102430.75;;;9.93;77.27
51849;BME280;38952;51.090;-1.832;2023-02-11T17:53:53;102435.19;;;9.88;76.91
51849;BME280;38952;51.090;-1.832;2023-02-11T17:59:06;102436.03;;;9.82;77.26
51849;BME280;38952;51.090;-1.832;2023-02-11T18:01:48;102449.88;;;9.93;77.58